Time;durP1;ratioP1;P1;durP2;ratioP2;P2;SDS_P1;SDS_P2;PMS_P1;PMS_P2;Temp;Humidity;BMP_temperature;BMP_pressure;BME280_temperature;BME280_humidity;BME280_pressure;Samples;Min_cycle;Max_cycle;Signal;HPM_P1;HPM_P2
2023/09/12 00:02:04;;;;;;;0.10;0.10;;;20.40;99.90;;;;;;4980492;28;20278;-80
2023/09/12 00:04:30;;;;;;;0.10;0.10;;;20.40;99.90;;;;;;4989738;28;20208;-81
2023/09/12 00:06:56;;;;;;;0.10;0.10;;;20.40;99.90;;;;;;4997915;28;20243;-81
2023/09/12 00:09:21;;;;;;;0.10;0.10;;;20.40;99.90;;;;;;4988643;28;20234;-81
2023/09/12 00:11:47;;;;;;;0.10;0.10;;;20.50;99.90;;;;;;4998354;28;20196;-80
2023/09/12 00:14:16;;;;;;;0.10;0.10;;;20.60;99.90;;;;;;4983349;28;20306;-81
2023/09/12 00:16:42;;;;;;;0.10;0.10;;;20.80;99.90;;;;;;4982972;28;20773;-81
2023/09/12 00:19:08;;;;;;;0.10;0.10;;;20.80;99.90;;;;;;4981645;28;20196;-80
2023/09/12 00:21:33;;;;;;;0.10;0.10;;;20.90;99.90;;;;;;4988076;28;20190;-80
2023/09/12 00:23:59;;;;;;;0.10;0.10;;;21.10;99.90;;;;;;4988682;28;20311;-80
2023/09/12 00:26:24;;;;;;;0.10;0.10;;;21.10;99.90;;;;;;4989008;28;20196;-80
2023/09/12 00:28:50;;;;;;;0.10;0.10;;;21.10;99.90;;;;;;4981870;28;20277;-81
2023/09/12 00:31:15;;;;;;;0.10;0.10;;;21.20;99.90;;;;;;4982782;28;21074;-80
2023/09/12 00:33:41;;;;;;;0.10;0.10;;;21.10;99.90;;;;;;4980092;28;20620;-80
2023/09/12 00:36:06;;;;;;;0.10;0.10;;;21.00;99.90;;;;;;4980568;28;20196;-80
2023/09/12 00:38:32;;;;;;;0.10;0.10;;;21.10;99.90;;;;;;4988613;28;20261;-81
2023/09/12 00:40:58;;;;;;;0.10;0.10;;;21.10;99.90;;;;;;4992537;28;20226;-80
2023/09/12 00:43:23;;;;;;;0.10;0.10;;;21.20;99.90;;;;;;4985104;28;20208;-80
2023/09/12 00:45:49;;;;;;;0.10;0.10;;;21.30;99.90;;;;;;4994492;28;20195;-81
2023/09/12 00:48:16;;;;;;;0.10;0.10;;;21.30;99.90;;;;;;4995348;28;20246;-80
2023/09/12 00:50:43;;;;;;;0.10;0.10;;;21.10;99.90;;;;;;4992627;28;20630;-81
2023/09/12 00:53:09;;;;;;;0.10;0.10;;;21.00;99.90;;;;;;4992194;28;20188;-81
2023/09/12 00:55:38;;;;;;;0.10;0.10;;;21.00;99.90;;;;;;4994311;28;20194;-81
2023/09/12 00:58:04;;;;;;;0.10;0.10;;;21.00;99.90;;;;;;4992520;28;20194;-80
2023/09/12 01:00:29;;;;;;;0.10;0.10;;;20.80;99.90;;;;;;4992031;28;20217;-80
2023/09/12 01:02:56;;;;;;;0.10;0.10;;;20.60;99.90;;;;;;4999610;28;20655;-80
2023/09/12 01:05:22;;;;;;;0.10;0.10;;;20.50;99.90;;;;;;4996562;28;20266;-80
2023/09/12 01:07:48;;;;;;;0.10;0.10;;;20.60;99.90;;;;;;4991558;28;20184;-80
2023/09/12 01:10:14;;;;;;;0.10;0.10;;;20.70;99.90;;;;;;4988797;28;20724;-80
2023/09/12 01:12:39;;;;;;;0.10;0.10;;;20.80;99.90;;;;;;4987962;28;20294;-81
2023/09/12 01:15:09;;;;;;;0.10;0.10;;;20.90;99.90;;;;;;4989277;28;20212;-80
2023/09/12 01:17:36;;;;;;;0.10;0.10;;;21.00;99.90;;;;;;4987857;28;20244;-81
2023/09/12 01:20:05;;;;;;;0.10;0.10;;;21.00;99.90;;;;;;4993524;28;20183;-80
2023/09/12 01:22:50;;;;;;;0.10;0.10;;;21.10;99.90;;;;;;4994463;28;20207;-80
2023/09/12 01:25:53;;;;;;;0.10;0.10;;;21.00;99.90;;;;;;4994169;28;20179;-80
2023/09/12 01:28:22;;;;;;;0.10;0.10;;;21.00;99.90;;;;;;4988916;28;20262;-81
2023/09/12 01:30:49;;;;;;;0.10;0.10;;;20.90;99.90;;;;;;4987965;28;20184;-81
2023/09/12 01:33:15;;;;;;;0.10;0.10;;;21.00;99.90;;;;;;4989110;28;20204;-80
2023/09/12 01:35:41;;;;;;;0.10;0.10;;;21.00;99.90;;;;;;4987121;28;20267;-81
2023/09/12 01:38:06;;;;;;;0.10;0.10;;;21.00;99.90;;;;;;4994527;28;20543;-80
2023/09/12 01:40:52;;;;;;;0.10;0.10;;;21.00;99.90;;;;;;4985100;28;21151;-80
2023/09/12 01:43:21;;;;;;;0.10;0.10;;;21.00;99.90;;;;;;4987222;28;20283;-80
2023/09/12 01:45:49;;;;;;;0.10;0.10;;;21.00;99.90;;;;;;4993969;28;20215;-80
2023/09/12 01:48:19;;;;;;;0.10;0.10;;;20.90;99.90;;;;;;4985726;28;20227;-81
2023/09/12 01:50:45;;;;;;;0.10;0.10;;;20.70;99.90;;;;;;4985398;28;20681;-80
2023/09/12 01:53:11;;;;;;;0.10;0.10;;;20.70;99.90;;;;;;4994098;28;20303;-80
2023/09/12 01:55:37;;;;;;;0.10;0.10;;;20.70;99.90;;;;;;4986893;28;20190;-80
2023/09/12 01:58:03;;;;;;;0.10;0.10;;;20.80;99.90;;;;;;4993983;28;20188;-80
2023/09/12 02:00:29;;;;;;;0.10;0.10;;;20.70;99.90;;;;;;4987999;28;20187;-80
2023/09/12 02:02:55;;;;;;;0.10;0.10;;;20.50;99.90;;;;;;4986575;28;20255;-80
2023/09/12 02:05:22;;;;;;;0.10;0.10;;;20.40;99.90;;;;;;4987151;28;20186;-80
2023/09/12 02:07:48;;;;;;;0.10;0.10;;;20.30;99.90;;;;;;4985107;28;20176;-81
2023/09/12 02:10:15;;;;;;;0.10;0.10;;;20.00;99.90;;;;;;4984727;28;20196;-80
2023/09/12 02:12:41;;;;;;;0.10;0.10;;;19.90;99.90;;;;;;4986176;28;20199;-81
2023/09/12 02:15:07;;;;;;;0.10;0.10;;;19.70;99.90;;;;;;4992677;28;20211;-81
2023/09/12 02:17:32;;;;;;;0.10;0.10;;;19.80;99.90;;;;;;4987089;28;20191;-80
2023/09/12 02:19:58;;;;;;;5.13;4.93;;;19.90;99.90;;;;;;4983178;28;20188;-80
2023/09/12 02:22:24;;;;;;;0.10;0.10;;;20.00;99.90;;;;;;4993368;28;20188;-80
2023/09/12 02:24:50;;;;;;;0.10;0.10;;;20.10;99.90;;;;;;4990985;28;20211;-81
2023/09/12 02:27:15;;;;;;;0.10;0.10;;;20.20;99.90;;;;;;4986265;28;20563;-80
2023/09/12 02:29:41;;;;;;;0.10;0.10;;;20.10;99.90;;;;;;4985947;28;20222;-80
2023/09/12 02:32:07;;;;;;;0.10;0.10;;;20.10;99.90;;;;;;4985797;28;20240;-80
2023/09/12 02:34:33;;;;;;;0.10;0.10;;;20.00;99.90;;;;;;4985518;28;20236;-80
2023/09/12 02:36:59;;;;;;;0.10;0.10;;;19.90;99.90;;;;;;4992348;28;20604;-80
2023/09/12 02:39:24;;;;;;;0.10;0.10;;;19.80;99.90;;;;;;4983511;28;20190;-80
2023/09/12 02:41:50;;;;;;;0.10;0.10;;;19.60;99.90;;;;;;4991641;28;20204;-80
2023/09/12 02:44:16;;;;;;;0.10;0.10;;;19.60;99.90;;;;;;4992591;28;20206;-80
2023/09/12 02:46:41;;;;;;;0.10;0.10;;;19.60;99.90;;;;;;4991841;28;20187;-80
2023/09/12 02:49:07;;;;;;;0.10;0.10;;;19.50;99.90;;;;;;4991141;28;20231;-80
2023/09/12 02:51:32;;;;;;;0.10;0.10;;;19.40;99.90;;;;;;4991979;28;20184;-80
2023/09/12 02:53:58;;;;;;;0.10;0.10;;;19.30;99.90;;;;;;4999741;28;20207;-80
2023/09/12 02:56:23;;;;;;;0.10;0.10;;;19.30;99.90;;;;;;4984803;28;20175;-80
2023/09/12 02:58:49;;;;;;;0.10;0.10;;;19.40;99.90;;;;;;4984105;28;20191;-80
2023/09/12 03:01:19;;;;;;;0.10;0.10;;;19.50;99.90;;;;;;4991412;28;20191;-80
2023/09/12 03:03:50;;;;;;;0.10;0.10;;;19.60;99.90;;;;;;4997635;28;20298;-80
2023/09/12 03:06:18;;;;;;;0.10;0.10;;;19.80;99.90;;;;;;5000312;28;20185;-81
2023/09/12 03:08:44;;;;;;;0.10;0.10;;;19.90;99.90;;;;;;4985486;28;20261;-80
2023/09/12 03:11:10;;;;;;;0.10;0.10;;;20.00;99.90;;;;;;4984350;28;20188;-80
2023/09/12 03:13:40;;;;;;;0.10;0.10;;;20.00;99.90;;;;;;4984702;28;20247;-80
2023/09/12 03:16:10;;;;;;;0.10;0.10;;;20.00;99.90;;;;;;4981686;28;20187;-80
2023/09/12 03:18:36;;;;;;;0.10;0.10;;;19.80;99.90;;;;;;4989864;28;20599;-80
2023/09/12 03:21:02;;;;;;;0.10;0.10;;;19.80;99.90;;;;;;4982835;28;20188;-80
2023/09/12 03:23:27;;;;;;;0.10;0.10;;;20.00;99.90;;;;;;4990428;28;20259;-80
2023/09/12 03:25:53;;;;;;;0.10;0.10;;;20.00;99.90;;;;;;4984212;28;20238;-81
2023/09/12 03:28:18;;;;;;;0.10;0.10;;;20.10;99.90;;;;;;4989304;28;20306;-80
2023/09/12 03:30:44;;;;;;;0.10;0.10;;;20.20;99.90;;;;;;4989154;28;20210;-81
2023/09/12 03:33:09;;;;;;;0.10;0.10;;;20.00;99.90;;;;;;4978969;28;20248;-80
2023/09/12 03:35:35;;;;;;;0.10;0.10;;;19.80;99.90;;;;;;4978353;28;20842;-80
2023/09/12 03:38:00;;;;;;;0.10;0.10;;;19.90;99.90;;;;;;4989684;28;20671;-80
2023/09/12 03:40:30;;;;;;;0.10;0.10;;;19.90;99.90;;;;;;4987316;28;20185;-80
2023/09/12 03:42:56;;;;;;;0.10;0.10;;;19.70;99.90;;;;;;4981310;28;20279;-80
2023/09/12 03:45:21;;;;;;;0.10;0.10;;;19.80;99.90;;;;;;4989452;28;20203;-80
2023/09/12 03:47:47;;;;;;;0.10;0.10;;;20.00;99.90;;;;;;4981699;28;20189;-81
2023/09/12 03:50:13;;;;;;;0.10;0.10;;;20.20;99.90;;;;;;4982343;28;20219;-81
2023/09/12 03:52:39;;;;;;;0.10;0.10;;;20.30;99.90;;;;;;4981478;28;20694;-80
2023/09/12 03:55:05;;;;;;;0.10;0.10;;;20.40;99.90;;;;;;4982135;28;20210;-81
2023/09/12 03:57:31;;;;;;;0.10;0.10;;;20.40;99.90;;;;;;4981490;28;20278;-80
2023/09/12 03:59:57;;;;;;;0.10;0.10;;;20.20;99.90;;;;;;4983470;28;20190;-81
2023/09/12 04:02:22;;;;;;;0.10;0.10;;;20.30;99.90;;;;;;4988965;28;20184;-80
2023/09/12 04:04:48;;;;;;;0.10;0.10;;;20.40;99.90;;;;;;4981841;28;21181;-81
2023/09/12 04:07:13;;;;;;;0.10;0.10;;;20.60;99.90;;;;;;4981646;28;20560;-81
2023/09/12 04:09:39;;;;;;;0.10;0.10;;;20.70;99.90;;;;;;4987666;28;20204;-80
2023/09/12 04:12:06;;;;;;;0.10;0.10;;;20.70;99.90;;;;;;4979306;28;20242;-80
2023/09/12 04:14:32;;;;;;;0.10;0.10;;;20.60;99.90;;;;;;4991085;28;20551;-80
2023/09/12 04:16:57;;;;;;;0.10;0.10;;;20.70;99.90;;;;;;4983093;28;20195;-80
2023/09/12 04:19:24;;;;;;;0.10;0.10;;;20.60;99.90;;;;;;4982807;28;20260;-80
2023/09/12 04:21:50;;;;;;;0.10;0.10;;;20.70;99.90;;;;;;4982383;28;20184;-80
2023/09/12 04:24:17;;;;;;;0.10;0.10;;;20.70;99.90;;;;;;4984542;28;20211;-80
2023/09/12 04:26:43;;;;;;;0.10;0.10;;;20.80;99.90;;;;;;4984248;28;20183;-80
2023/09/12 04:29:09;;;;;;;0.10;0.10;;;20.80;99.90;;;;;;4985867;28;20204;-80
2023/09/12 04:31:35;;;;;;;0.10;0.10;;;20.90;99.90;;;;;;4990213;28;20636;-80
2023/09/12 04:34:01;;;;;;;0.10;0.10;;;20.90;99.90;;;;;;4979735;28;20261;-81
2023/09/12 04:36:26;;;;;;;0.10;0.10;;;20.90;99.90;;;;;;4990480;28;20190;-80
2023/09/12 04:38:52;;;;;;;0.10;0.10;;;20.90;99.90;;;;;;4989689;28;20190;-80
2023/09/12 04:41:17;;;;;;;0.10;0.10;;;20.90;99.90;;;;;;4990219;28;20199;-80
2023/09/12 04:43:44;;;;;;;0.10;0.10;;;20.60;99.90;;;;;;4991244;28;20231;-80
2023/09/12 04:46:10;;;;;;;0.10;0.10;;;20.20;99.90;;;;;;4981267;28;20191;-80
2023/09/12 04:48:36;;;;;;;0.10;0.10;;;20.00;99.90;;;;;;4989371;28;20207;-81
2023/09/12 04:51:01;;;;;;;0.10;0.10;;;19.90;99.90;;;;;;4983758;28;20200;-79
2023/09/12 04:53:30;;;;;;;0.10;0.10;;;19.90;99.90;;;;;;4985572;28;20279;-80
2023/09/12 04:55:56;;;;;;;0.10;0.10;;;20.00;99.90;;;;;;4983688;28;20627;-80
2023/09/12 04:58:21;;;;;;;0.10;0.10;;;20.20;99.90;;;;;;4985436;28;20208;-79
2023/09/12 05:00:47;;;;;;;0.10;0.10;;;20.40;99.90;;;;;;4986574;28;20246;-79
2023/09/12 05:03:13;;;;;;;0.10;0.10;;;20.50;99.90;;;;;;4979867;28;20211;-79
2023/09/12 05:05:38;;;;;;;0.10;0.10;;;20.60;99.90;;;;;;4977176;28;20667;-79
2023/09/12 05:08:04;;;;;;;0.10;0.10;;;20.60;99.90;;;;;;4979143;28;20184;-80
2023/09/12 05:10:30;;;;;;;0.10;0.10;;;20.50;99.90;;;;;;4982729;28;20190;-80
2023/09/12 05:12:56;;;;;;;0.10;0.10;;;20.10;99.90;;;;;;4989652;28;20658;-79
2023/09/12 05:15:21;;;;;;;0.10;0.10;;;19.90;99.90;;;;;;4982174;28;20230;-80
2023/09/12 05:17:47;;;;;;;0.10;0.10;;;20.10;99.90;;;;;;4984884;28;20303;-80
2023/09/12 05:20:12;;;;;;;0.10;0.10;;;20.30;99.90;;;;;;4979531;28;20189;-80
2023/09/12 05:22:38;;;;;;;0.10;0.10;;;20.50;99.90;;;;;;4976859;28;20242;-80
2023/09/12 05:25:03;;;;;;;0.10;0.10;;;20.30;99.90;;;;;;4976319;28;20223;-80
2023/09/12 05:27:29;;;;;;;0.10;0.10;;;20.30;99.90;;;;;;4977498;28;20192;-80
2023/09/12 05:29:54;;;;;;;0.10;0.10;;;20.20;99.90;;;;;;4978424;28;20695;-80
2023/09/12 05:32:20;;;;;;;0.10;0.10;;;20.10;99.90;;;;;;4980058;28;20192;-80
2023/09/12 05:34:49;;;;;;;0.10;0.10;;;20.10;99.90;;;;;;4980138;28;20238;-80
2023/09/12 05:37:15;;;;;;;0.10;0.10;;;20.20;99.90;;;;;;4997205;28;20203;-79
2023/09/12 05:39:40;;;;;;;0.10;0.10;;;20.10;99.90;;;;;;4985331;28;20346;-81
2023/09/12 05:42:06;;;;;;;0.10;0.10;;;20.00;99.90;;;;;;4984096;28;20319;-81
2023/09/12 05:44:32;;;;;;;0.10;0.10;;;20.10;99.90;;;;;;4984375;28;20216;-81
2023/09/12 05:46:57;;;;;;;0.10;0.10;;;20.20;99.90;;;;;;4983469;28;20322;-81
2023/09/12 05:49:23;;;;;;;0.10;0.10;;;20.10;99.90;;;;;;4985851;28;20267;-81
2023/09/12 05:51:48;;;;;;;0.10;0.10;;;20.20;99.90;;;;;;4992248;28;20184;-81
2023/09/12 05:54:14;;;;;;;0.10;0.10;;;20.40;99.90;;;;;;4990675;28;20288;-81
2023/09/12 05:56:40;;;;;;;0.10;0.10;;;20.60;99.90;;;;;;4984790;28;20187;-81
2023/09/12 05:59:06;;;;;;;0.10;0.10;;;20.80;99.90;;;;;;4983590;28;20263;-82
2023/09/12 06:01:31;;;;;;;0.10;0.10;;;20.90;99.90;;;;;;4986273;28;20196;-81
2023/09/12 06:03:57;;;;;;;0.10;0.10;;;21.00;99.90;;;;;;4990933;28;20208;-81
2023/09/12 06:06:23;;;;;;;0.10;0.10;;;21.00;99.90;;;;;;4992176;28;21280;-82
2023/09/12 06:08:48;;;;;;;0.10;0.10;;;21.00;99.90;;;;;;4987782;28;20730;-81
2023/09/12 06:11:14;;;;;;;0.10;0.10;;;20.90;99.90;;;;;;4984812;28;20226;-81
2023/09/12 06:13:39;;;;;;;0.10;0.10;;;21.00;99.90;;;;;;4984836;28;20215;-81
2023/09/12 06:16:05;;;;;;;0.10;0.10;;;21.10;99.90;;;;;;4981079;28;20188;-81
2023/09/12 06:18:32;;;;;;;0.10;0.10;;;21.20;99.90;;;;;;4985289;28;20188;-81
2023/09/12 06:20:59;;;;;;;0.10;0.10;;;21.30;99.90;;;;;;4985626;28;20713;-81
2023/09/12 06:23:24;;;;;;;0.10;0.10;;;21.40;99.90;;;;;;5000761;28;20680;-81
2023/09/12 06:25:50;;;;;;;0.10;0.10;;;21.60;99.90;;;;;;4980263;28;20184;-81
2023/09/12 06:28:28;;;;;;;0.10;0.10;;;21.80;99.90;;;;;;4990130;28;20197;-81
2023/09/12 06:30:53;;;;;;;0.10;0.10;;;22.00;99.90;;;;;;4982742;28;20159;-81
2023/09/12 06:33:19;;;;;;;0.10;0.10;;;22.00;99.90;;;;;;4984122;28;20208;-81
2023/09/12 06:35:49;;;;;;;0.10;0.10;;;21.90;99.90;;;;;;4982370;28;20179;-81
2023/09/12 06:38:15;;;;;;;0.10;0.10;;;22.10;99.90;;;;;;4989284;28;20205;-81
2023/09/12 06:40:43;;;;;;;0.10;0.10;;;22.20;99.90;;;;;;4981860;28;20188;-82
2023/09/12 06:43:08;;;;;;;0.10;0.10;;;22.40;99.90;;;;;;4988680;28;20714;-81
2023/09/12 06:45:36;;;;;;;0.10;0.10;;;22.60;99.90;;;;;;4991081;28;20196;-81
2023/09/12 06:48:02;;;;;;;0.10;0.10;;;22.70;99.90;;;;;;4983991;28;20210;-81
2023/09/12 06:50:27;;;;;;;0.10;0.10;;;22.80;99.90;;;;;;4980792;28;21139;-81
2023/09/12 06:52:53;;;;;;;0.10;0.10;;;23.00;99.90;;;;;;4989368;28;20187;-81
2023/09/12 06:55:18;;;;;;;0.10;0.10;;;23.10;99.90;;;;;;4984644;28;20217;-81
2023/09/12 06:57:45;;;;;;;0.10;0.10;;;23.30;99.90;;;;;;4983718;28;20259;-81
2023/09/12 07:00:11;;;;;;;0.10;0.10;;;23.40;99.90;;;;;;4984151;28;20180;-81
2023/09/12 07:02:37;;;;;;;0.10;0.10;;;23.50;99.90;;;;;;4985617;28;20783;-81
2023/09/12 07:05:03;;;;;;;0.10;0.10;;;23.60;99.90;;;;;;4991187;28;20205;-81
2023/09/12 07:07:29;;;;;;;0.10;0.10;;;23.80;99.90;;;;;;4990742;28;20215;-81
2023/09/12 07:09:54;;;;;;;0.10;0.10;;;23.90;99.90;;;;;;4983415;28;21127;-81
2023/09/12 07:12:20;;;;;;;0.10;0.10;;;24.00;99.90;;;;;;4990279;28;20652;-81
2023/09/12 07:14:45;;;;;;;0.10;0.10;;;24.10;99.90;;;;;;4998006;28;20235;-82
2023/09/12 07:17:11;;;;;;;0.10;0.10;;;24.20;99.90;;;;;;4981910;28;20278;-82
2023/09/12 07:19:36;;;;;;;0.10;0.10;;;24.20;99.90;;;;;;4989025;28;20580;-82
2023/09/12 07:22:03;;;;;;;0.10;0.10;;;24.40;99.90;;;;;;4984982;28;20251;-81
2023/09/12 07:24:28;;;;;;;0.10;0.10;;;24.60;99.90;;;;;;4992214;28;20230;-81
2023/09/12 07:26:54;;;;;;;0.10;0.10;;;24.80;99.90;;;;;;4983465;28;20188;-81
2023/09/12 07:29:19;;;;;;;0.10;0.10;;;24.90;99.90;;;;;;4984819;28;20220;-82
2023/09/12 07:31:45;;;;;;;0.10;0.10;;;24.90;99.90;;;;;;4982743;28;20203;-81
2023/09/12 07:34:11;;;;;;;0.10;0.10;;;24.90;99.90;;;;;;4981290;28;20295;-81
2023/09/12 07:36:37;;;;;;;0.10;0.10;;;24.90;99.90;;;;;;4981725;28;20179;-81
2023/09/12 07:39:04;;;;;;;0.10;0.10;;;25.00;99.90;;;;;;4982539;28;20660;-81
2023/09/12 07:41:30;;;;;;;0.10;0.10;;;25.10;99.90;;;;;;4980479;28;20192;-82
2023/09/12 07:43:56;;;;;;;0.10;0.10;;;25.20;99.90;;;;;;4987583;28;20238;-80
2023/09/12 07:46:22;;;;;;;0.10;0.10;;;25.20;99.90;;;;;;4979817;28;20196;-80
2023/09/12 07:48:47;;;;;;;0.10;0.10;;;25.30;99.90;;;;;;4979432;28;20212;-81
2023/09/12 07:51:14;;;;;;;0.10;0.10;;;25.40;99.90;;;;;;4993603;28;21086;-84
2023/09/12 07:53:41;;;;;;;0.10;0.10;;;25.50;99.90;;;;;;4984726;28;20291;-82
2023/09/12 07:56:08;;;;;;;0.10;0.10;;;25.60;99.90;;;;;;4982757;28;20212;-82
2023/09/12 07:58:33;;;;;;;0.10;0.10;;;25.60;99.90;;;;;;4976643;28;20227;-83
2023/09/12 08:00:59;;;;;;;0.10;0.10;;;25.60;99.90;;;;;;4980285;28;20219;-81
2023/09/12 08:03:24;;;;;;;0.10;0.10;;;25.70;99.90;;;;;;4988102;28;20577;-82
2023/09/12 08:05:59;;;;;;;0.10;0.10;;;26.00;99.90;;;;;;4991394;28;20252;-81
2023/09/12 08:08:25;;;;;;;0.10;0.10;;;25.80;99.90;;;;;;4983260;28;20214;-82
2023/09/12 08:10:50;;;;;;;0.10;0.10;;;25.40;99.90;;;;;;4984457;28;20263;-81
2023/09/12 08:13:16;;;;;;;0.10;0.10;;;25.50;99.90;;;;;;4982193;28;20204;-81
2023/09/12 08:15:41;;;;;;;0.10;0.10;;;25.90;99.90;;;;;;4981188;28;20643;-81
2023/09/12 08:18:07;;;;;;;0.10;0.10;;;25.70;99.90;;;;;;4983738;28;20195;-82
2023/09/12 08:20:32;;;;;;;0.10;0.10;;;26.00;99.90;;;;;;4981767;28;20188;-81
2023/09/12 08:22:58;;;;;;;0.10;0.10;;;26.30;99.90;;;;;;4990481;28;20223;-82
2023/09/12 08:25:24;;;;;;;0.10;0.10;;;26.60;99.90;;;;;;4983399;28;20192;-82
2023/09/12 08:27:50;;;;;;;0.10;0.10;;;26.80;99.90;;;;;;4981413;28;20279;-81
2023/09/12 08:30:16;;;;;;;0.10;0.10;;;27.00;99.90;;;;;;4983000;28;20702;-81
2023/09/12 08:32:43;;;;;;;0.10;0.10;;;27.10;99.90;;;;;;4982488;28;20586;-82
2023/09/12 08:35:13;;;;;;;0.10;0.10;;;27.20;99.90;;;;;;4982518;28;20204;-82
2023/09/12 08:37:40;;;;;;;0.10;0.10;;;27.30;99.90;;;;;;4990447;28;20184;-82
2023/09/12 08:40:10;;;;;;;0.10;0.10;;;27.30;99.90;;;;;;4982447;28;20192;-81
2023/09/12 08:42:43;;;;;;;0.10;0.10;;;27.20;99.90;;;;;;4983548;28;20567;-81
2023/09/12 08:45:16;;;;;;;0.10;0.10;;;27.00;99.90;;;;;;4998549;28;20207;-82
2023/09/12 08:47:44;;;;;;;0.10;0.10;;;27.20;99.90;;;;;;4984851;28;20190;-82
2023/09/12 08:50:13;;;;;;;0.10;0.10;;;27.50;99.90;;;;;;4982070;28;20323;-82
2023/09/12 08:52:44;;;;;;;0.10;0.10;;;27.50;99.90;;;;;;4985312;28;20199;-82
2023/09/12 08:55:11;;;;;;;0.10;0.10;;;27.70;99.90;;;;;;4999250;28;20196;-82
2023/09/12 08:57:40;;;;;;;0.10;0.10;;;27.90;99.90;;;;;;4997669;28;20275;-82
2023/09/12 09:00:06;;;;;;;0.10;0.10;;;28.00;99.90;;;;;;4985105;28;20220;-82
2023/09/12 09:02:39;;;;;;;0.10;0.10;;;28.00;99.90;;;;;;4986138;28;20208;-82
2023/09/12 09:05:07;;;;;;;0.10;0.10;;;28.10;99.90;;;;;;4984539;28;20208;-82
2023/09/12 09:07:37;;;;;;;0.10;0.10;;;28.30;99.90;;;;;;4994005;28;20671;-81
2023/09/12 09:10:05;;;;;;;0.10;0.10;;;28.20;99.90;;;;;;4987128;28;20263;-82
2023/09/12 09:12:31;;;;;;;0.10;0.10;;;28.10;99.90;;;;;;4985757;28;20185;-82
2023/09/12 09:14:56;;;;;;;0.10;0.10;;;28.20;99.90;;;;;;4984228;28;20201;-82
2023/09/12 09:17:23;;;;;;;0.10;0.10;;;28.30;99.90;;;;;;5002728;28;20184;-82
2023/09/12 09:19:49;;;;;;;0.10;0.10;;;28.50;99.90;;;;;;4994898;28;20220;-82
2023/09/12 09:22:14;;;;;;;0.10;0.10;;;28.70;99.90;;;;;;5001862;28;20259;-81
2023/09/12 09:24:40;;;;;;;0.10;0.10;;;28.80;99.90;;;;;;4988180;28;20259;-82
2023/09/12 09:27:05;;;;;;;0.10;0.10;;;28.90;99.90;;;;;;4996931;28;20196;-82
2023/09/12 09:29:33;;;;;;;0.10;0.10;;;28.90;99.90;;;;;;4986250;28;20215;-82
2023/09/12 09:32:04;;;;;;;0.10;0.10;;;29.00;99.90;;;;;;4989752;28;20187;-82
2023/09/12 09:34:31;;;;;;;0.10;0.10;;;29.10;99.90;;;;;;4988467;28;20698;-82
2023/09/12 09:36:57;;;;;;;0.10;0.10;;;28.50;99.90;;;;;;4996838;28;20594;-82
2023/09/12 09:39:25;;;;;;;0.10;0.10;;;28.20;99.90;;;;;;4988523;28;20191;-81
2023/09/12 09:41:52;;;;;;;0.10;0.10;;;27.40;99.90;;;;;;4986968;28;20313;-81
2023/09/12 09:44:20;;;;;;;0.10;0.10;;;27.40;99.90;;;;;;4987792;28;20220;-82
2023/09/12 09:46:50;;;;;;;0.10;0.10;;;27.60;99.90;;;;;;4988194;28;20738;-81
2023/09/12 09:49:17;;;;;;;0.10;0.10;;;26.90;99.90;;;;;;4986759;28;20231;-81
2023/09/12 09:51:43;;;;;;;0.10;0.10;;;27.50;99.90;;;;;;4985202;28;20183;-81
2023/09/12 09:54:13;;;;;;;0.10;0.10;;;27.70;99.90;;;;;;4986465;28;20218;-81
2023/09/12 09:57:05;;;;;;;0.10;0.10;;;28.10;99.90;;;;;;4990164;28;20188;-81
2023/09/12 09:59:30;;;;;;;0.10;0.10;;;28.40;99.90;;;;;;4986145;28;20195;-82
2023/09/12 10:02:00;;;;;;;0.10;0.10;;;28.40;99.90;;;;;;4989312;28;20188;-82
2023/09/12 10:04:27;;;;;;;0.10;0.10;;;28.20;99.90;;;;;;4987775;28;20211;-82
2023/09/12 10:06:56;;;;;;;0.10;0.10;;;28.70;99.90;;;;;;4991050;28;20327;-81
2023/09/12 10:09:25;;;;;;;0.10;0.10;;;28.30;99.90;;;;;;4987128;28;20211;-81
2023/09/12 10:11:52;;;;;;;0.10;0.10;;;28.40;99.90;;;;;;4993815;28;20176;-82
2023/09/12 10:14:20;;;;;;;0.10;0.10;;;28.30;99.90;;;;;;4988339;28;20223;-82
2023/09/12 10:16:48;;;;;;;0.10;0.10;;;28.50;99.90;;;;;;4994527;28;20624;-82
2023/09/12 10:19:28;;;;;;;0.10;0.10;;;29.00;99.90;;;;;;4988749;28;20184;-81
2023/09/12 10:22:04;;;;;;;0.10;0.10;;;29.20;99.90;;;;;;4989690;28;20216;-82
2023/09/12 10:24:30;;;;;;;0.10;0.10;;;29.40;99.90;;;;;;4986387;28;20203;-82
2023/09/12 10:26:57;;;;;;;0.10;0.10;;;29.80;99.90;;;;;;4987850;28;20611;-82
2023/09/12 10:29:23;;;;;;;0.10;0.10;;;29.70;99.90;;;;;;4984868;28;20228;-82
2023/09/12 10:31:49;;;;;;;0.10;0.10;;;29.90;99.90;;;;;;4995726;28;20247;-82
2023/09/12 10:34:16;;;;;;;0.10;0.10;;;29.70;99.90;;;;;;4987988;28;20239;-82
2023/09/12 10:36:43;;;;;;;0.10;0.10;;;30.00;99.90;;;;;;4987729;28;20200;-82
2023/09/12 10:39:10;;;;;;;0.10;0.10;;;30.10;99.90;;;;;;4987092;28;20567;-82
2023/09/12 10:41:37;;;;;;;0.10;0.10;;;29.80;99.90;;;;;;4986596;28;20211;-82
2023/09/12 10:44:09;;;;;;;0.10;0.10;;;29.70;99.90;;;;;;4988307;28;20212;-81
2023/09/12 10:46:39;;;;;;;0.10;0.10;;;29.70;99.90;;;;;;4992998;28;20206;-82
2023/09/12 10:49:10;;;;;;;0.10;0.10;;;29.90;99.90;;;;;;4991472;28;20303;-82
2023/09/12 10:51:44;;;;;;;0.10;0.10;;;29.90;99.90;;;;;;4989168;28;20781;-82
2023/09/12 10:54:14;;;;;;;0.10;0.10;;;30.20;99.90;;;;;;4989112;28;20211;-82
2023/09/12 10:56:40;;;;;;;0.10;0.10;;;30.40;99.90;;;;;;4996343;28;20187;-81
2023/09/12 10:59:09;;;;;;;0.10;0.10;;;30.40;99.90;;;;;;4989000;28;20180;-82
2023/09/12 11:01:36;;;;;;;0.10;0.10;;;30.20;99.90;;;;;;4988234;28;20227;-82
2023/09/12 11:04:20;;;;;;;0.10;0.10;;;30.30;99.90;;;;;;4990744;28;20258;-82
2023/09/12 11:06:47;;;;;;;0.10;0.10;;;30.40;99.90;;;;;;4987666;28;20188;-82
2023/09/12 11:09:26;;;;;;;0.10;0.10;;;30.30;99.90;;;;;;4994369;28;20212;-82
2023/09/12 11:12:01;;;;;;;0.10;0.10;;;30.50;99.90;;;;;;4987485;28;20172;-82
2023/09/12 11:14:27;;;;;;;0.10;0.10;;;30.40;99.90;;;;;;4989625;28;20227;-82
2023/09/12 11:17:07;;;;;;;0.10;0.10;;;30.30;99.90;;;;;;4989206;28;20850;-82
2023/09/12 11:19:51;;;;;;;0.10;0.10;;;30.30;99.90;;;;;;4988013;28;20215;-82
2023/09/12 11:22:25;;;;;;;0.10;0.10;;;30.50;99.90;;;;;;4991449;28;20190;-82
2023/09/12 11:24:51;;;;;;;0.10;0.10;;;30.70;99.90;;;;;;4992316;28;20757;-82
2023/09/12 11:27:17;;;;;;;0.10;0.10;;;31.00;99.90;;;;;;4985121;28;20199;-82
2023/09/12 11:29:42;;;;;;;0.10;0.10;;;31.10;99.90;;;;;;4991112;28;20200;-82
2023/09/12 11:32:09;;;;;;;0.10;0.10;;;31.40;99.90;;;;;;4991449;28;20189;-82
2023/09/12 11:34:42;;;;;;;0.10;0.10;;;31.70;99.90;;;;;;4984848;28;20223;-82
2023/09/12 11:37:09;;;;;;;0.10;0.10;;;31.80;99.90;;;;;;4983122;28;20591;-82
2023/09/12 11:39:36;;;;;;;0.10;0.10;;;31.80;99.90;;;;;;4996462;28;20214;-82
2023/09/12 11:42:03;;;;;;;0.10;0.10;;;32.10;99.90;;;;;;4988867;28;20206;-82
2023/09/12 11:44:31;;;;;;;0.10;0.10;;;32.40;99.90;;;;;;4995450;28;20697;-82
2023/09/12 11:47:03;;;;;;;0.10;0.10;;;32.50;99.90;;;;;;4987218;28;20314;-81
2023/09/12 11:49:35;;;;;;;0.10;0.10;;;32.60;99.90;;;;;;4978154;28;20282;-78
2023/09/12 11:52:00;;;;;;;0.10;0.10;;;32.60;99.90;;;;;;4978591;28;20188;-78
2023/09/12 11:54:26;;;;;;;0.10;0.10;;;32.70;99.90;;;;;;4985515;28;20221;-78
2023/09/12 11:56:59;;;;;;;0.10;0.10;;;32.80;99.90;;;;;;4993119;28;20563;-78
2023/09/12 11:59:31;;;;;;;0.10;0.10;;;32.60;99.90;;;;;;4979920;28;20183;-77
2023/09/12 12:01:57;;;;;;;0.10;0.10;;;32.90;99.90;;;;;;4984989;28;20814;-77
2023/09/12 12:04:27;;;;;;;0.20;0.20;;;33.20;99.90;;;;;;4977858;28;20294;-77
2023/09/12 12:06:53;;;;;;;0.10;0.10;;;33.50;99.90;;;;;;4978086;28;20191;-77
2023/09/12 12:09:19;;;;;;;0.10;0.10;;;33.40;99.90;;;;;;4978036;28;20199;-78
2023/09/12 12:11:48;;;;;;;0.10;0.10;;;33.40;99.90;;;;;;4978637;28;20186;-78
2023/09/12 12:14:15;;;;;;;0.10;0.10;;;33.40;99.90;;;;;;4992882;28;20701;-77
2023/09/12 12:16:42;;;;;;;0.10;0.10;;;33.40;99.90;;;;;;4977801;28;20233;-77
2023/09/12 12:19:08;;;;;;;0.10;0.10;;;33.30;99.90;;;;;;4978855;28;20278;-78
2023/09/12 12:21:34;;;;;;;0.32;0.32;;;32.40;99.90;;;;;;4977661;28;20183;-78
2023/09/12 12:24:01;;;;;;;0.10;0.10;;;30.50;99.90;;;;;;4977221;28;20207;-77
2023/09/12 12:26:27;;;;;;;0.10;0.10;;;29.70;99.90;;;;;;4985589;28;20192;-77
2023/09/12 12:28:53;;;;;;;0.10;0.10;;;30.20;99.90;;;;;;4978412;28;20207;-77
2023/09/12 12:31:19;;;;;;;0.10;0.10;;;30.60;99.90;;;;;;4977587;28;20191;-78
2023/09/12 12:33:49;;;;;;;0.10;0.10;;;31.30;99.90;;;;;;4977153;28;20273;-77
2023/09/12 12:36:14;;;;;;;0.10;0.10;;;31.40;99.90;;;;;;4981250;28;20199;-77
2023/09/12 12:38:43;;;;;;;0.10;0.10;;;31.80;99.90;;;;;;4980756;28;20200;-78
2023/09/12 12:41:09;;;;;;;0.10;0.10;;;32.10;99.90;;;;;;4980801;28;20274;-78
2023/09/12 12:43:34;;;;;;;0.10;0.10;;;32.40;99.90;;;;;;4982243;28;20231;-77
2023/09/12 12:46:00;;;;;;;0.10;0.10;;;32.50;99.90;;;;;;4982403;28;20192;-77
2023/09/12 12:48:36;;;;;;;0.10;0.10;;;32.60;99.90;;;;;;4980969;28;20196;-77